Time;durP1;ratioP1;P1;durP2;ratioP2;P2;SDS_P1;SDS_P2;PMS_P1;PMS_P2;Temp;Humidity;BMP_temperature;BMP_pressure;BME280_temperature;BME280_humidity;BME280_pressure;Samples;Min_cycle;Max_cycle;Signal;HPM_P1;HPM_P2
2023/06/14 00:00:16;;;;;;;3.00;2.03;;;19.80;93.00;;;;;;5016917;28;20026;-40
2023/06/14 00:02:41;;;;;;;4.23;2.20;;;19.80;93.20;;;;;;5016707;28;20026;-64
2023/06/14 00:05:07;;;;;;;2.83;2.08;;;19.80;93.30;;;;;;5015843;28;20037;-39
2023/06/14 00:07:35;;;;;;;3.33;1.75;;;19.70;93.30;;;;;;5016492;28;20044;-39
2023/06/14 00:10:01;;;;;;;4.85;1.95;;;19.60;93.30;;;;;;5016314;28;20044;-39
2023/06/14 00:12:27;;;;;;;3.47;2.03;;;19.60;93.30;;;;;;5016548;28;20030;-40
2023/06/14 00:14:53;;;;;;;4.13;2.10;;;19.50;93.30;;;;;;5016451;28;20504;-40
2023/06/14 00:17:19;;;;;;;5.88;2.60;;;19.40;93.20;;;;;;5016635;28;20109;-57
2023/06/14 00:19:45;;;;;;;1.88;1.73;;;19.40;93.30;;;;;;5015324;28;20390;-40
2023/06/14 00:22:12;;;;;;;2.60;2.03;;;19.40;93.40;;;;;;5034528;28;20470;-37
2023/06/14 00:24:37;;;;;;;2.53;1.80;;;19.40;93.30;;;;;;5033055;28;20022;-41
2023/06/14 00:27:03;;;;;;;5.88;2.20;;;19.40;93.10;;;;;;5036032;28;20124;-39
2023/06/14 00:29:29;;;;;;;7.68;1.92;;;19.40;93.00;;;;;;5036223;28;20034;-39
2023/06/14 00:31:54;;;;;;;3.72;1.80;;;19.40;93.00;;;;;;5035877;28;20473;-40
2023/06/14 00:34:20;;;;;;;3.63;1.90;;;19.40;93.10;;;;;;5033239;28;20538;-39
2023/06/14 00:36:46;;;;;;;4.13;1.83;;;19.30;92.90;;;;;;5031400;28;20493;-39
2023/06/14 00:39:11;;;;;;;3.92;1.80;;;19.30;93.00;;;;;;5035798;28;20053;-39
2023/06/14 00:41:37;;;;;;;2.15;1.75;;;19.30;93.00;;;;;;5030770;28;20021;-38
2023/06/14 00:44:04;;;;;;;5.00;1.98;;;19.20;93.00;;;;;;5028803;28;20029;-38
2023/06/14 00:46:29;;;;;;;5.05;1.85;;;19.10;93.10;;;;;;5026833;28;20041;-40
2023/06/14 00:48:56;;;;;;;3.50;1.77;;;19.10;93.10;;;;;;5015928;28;20057;-39
2023/06/14 00:51:22;;;;;;;5.95;2.30;;;19.10;93.20;;;;;;5023694;28;20108;-40
2023/06/14 00:53:48;;;;;;;3.60;1.63;;;19.00;93.40;;;;;;5035435;28;20110;-43
2023/06/14 00:56:14;;;;;;;2.53;2.28;;;19.00;93.20;;;;;;5035459;28;20029;-54
2023/06/14 00:58:41;;;;;;;5.57;1.67;;;19.00;93.20;;;;;;5035106;28;20132;-39
2023/06/14 01:01:07;;;;;;;8.20;1.93;;;19.00;93.10;;;;;;5032406;28;20529;-39
2023/06/14 01:03:33;;;;;;;8.30;2.03;;;19.00;93.30;;;;;;5034971;28;20053;-37
2023/06/14 01:06:31;;;;;;;5.88;2.15;;;19.00;93.20;;;;;;5030886;28;20029;-39
2023/06/14 01:09:23;;;;;;;2.00;1.80;;;19.00;93.10;;;;;;5034628;28;20045;-32
2023/06/14 01:12:11;;;;;;;3.38;1.73;;;18.90;93.20;;;;;;5032549;28;20111;-35
2023/06/14 01:14:38;;;;;;;2.97;2.00;;;18.90;93.40;;;;;;5035069;28;20083;-34
2023/06/14 01:17:05;;;;;;;4.45;1.98;;;18.90;93.80;;;;;;5022775;28;20034;-39
2023/06/14 01:19:34;;;;;;;7.80;1.85;;;18.90;93.80;;;;;;5014202;28;20547;-58
2023/06/14 01:22:01;;;;;;;5.78;2.15;;;18.90;93.50;;;;;;5034623;28;20029;-56
2023/06/14 01:24:28;;;;;;;4.70;2.05;;;18.80;93.20;;;;;;5034894;28;20512;-52
2023/06/14 01:26:58;;;;;;;4.93;2.05;;;18.80;93.80;;;;;;5034892;28;20025;-41
2023/06/14 01:29:27;;;;;;;1.73;1.48;;;18.70;93.40;;;;;;5033184;28;20480;-40
2023/06/14 01:31:54;;;;;;;2.10;1.27;;;18.70;93.60;;;;;;5035023;28;20024;-39
2023/06/14 01:34:20;;;;;;;2.63;1.92;;;18.70;93.60;;;;;;5034773;28;20029;-39
2023/06/14 01:36:47;;;;;;;6.85;1.67;;;18.70;93.80;;;;;;5028448;28;20539;-39
2023/06/14 01:39:15;;;;;;;2.72;1.85;;;18.70;93.50;;;;;;5014844;28;20096;-39
2023/06/14 01:41:42;;;;;;;5.80;1.85;;;18.70;93.70;;;;;;5032970;28;20038;-39
2023/06/14 01:44:10;;;;;;;1.77;1.53;;;18.60;93.50;;;;;;5031659;28;20029;-40
2023/06/14 01:46:36;;;;;;;2.30;1.67;;;18.60;93.50;;;;;;5014633;28;20256;-39
2023/06/14 01:49:02;;;;;;;3.55;2.30;;;18.50;93.80;;;;;;5024034;28;20033;-39
2023/06/14 01:51:28;;;;;;;2.58;1.90;;;18.60;93.70;;;;;;5029851;28;20032;-38
2023/06/14 01:53:53;;;;;;;5.32;3.03;;;18.50;93.70;;;;;;5034383;28;20033;-38
2023/06/14 01:56:19;;;;;;;4.40;2.17;;;18.50;93.80;;;;;;5034630;28;20021;-39
2023/06/14 01:58:45;;;;;;;2.42;1.73;;;18.50;93.60;;;;;;5030729;28;20173;-39
2023/06/14 02:01:12;;;;;;;2.25;1.90;;;18.60;93.70;;;;;;5033618;28;20083;-46
2023/06/14 02:03:38;;;;;;;5.10;1.67;;;18.60;93.80;;;;;;5034159;28;20021;-38
2023/06/14 02:06:04;;;;;;;3.95;1.70;;;18.60;93.40;;;;;;5030682;28;20389;-60
2023/06/14 02:08:29;;;;;;;3.33;1.83;;;18.60;93.40;;;;;;5034093;28;20029;-40
2023/06/14 02:10:55;;;;;;;2.78;1.67;;;18.60;93.30;;;;;;5032686;28;20101;-40
2023/06/14 02:13:21;;;;;;;5.10;1.50;;;18.50;93.80;;;;;;5034000;28;20028;-39
2023/06/14 02:15:50;;;;;;;9.70;1.77;;;18.50;93.70;;;;;;5026516;28;20105;-39
2023/06/14 02:18:16;;;;;;;8.20;3.28;;;18.50;93.80;;;;;;5014031;28;20040;-38
2023/06/14 02:20:42;;;;;;;5.32;3.17;;;18.50;93.70;;;;;;5014768;28;20436;-40
2023/06/14 02:23:07;;;;;;;3.33;1.80;;;18.40;94.10;;;;;;5033736;28;20075;-54
2023/06/14 02:25:33;;;;;;;2.20;1.50;;;18.40;94.00;;;;;;5031306;28;20084;-40
2023/06/14 02:27:59;;;;;;;4.30;1.50;;;18.40;93.90;;;;;;5033676;28;20489;-38
2023/06/14 02:30:24;;;;;;;11.90;1.95;;;18.40;93.90;;;;;;5033928;28;20033;-38
2023/06/14 02:32:51;;;;;;;7.90;1.67;;;18.30;94.00;;;;;;5033624;28;20075;-38
2023/06/14 02:35:16;;;;;;;2.60;1.77;;;18.30;93.70;;;;;;5032449;28;20494;-40
2023/06/14 02:37:42;;;;;;;3.40;1.77;;;18.30;94.00;;;;;;5022312;28;20026;-40
2023/06/14 02:40:08;;;;;;;3.95;2.05;;;18.30;94.10;;;;;;5013805;28;20148;-41
2023/06/14 02:42:34;;;;;;;3.33;1.48;;;18.20;94.10;;;;;;5013694;28;20431;-40
2023/06/14 02:45:02;;;;;;;2.63;1.92;;;18.20;94.20;;;;;;5013953;28;20030;-40
2023/06/14 02:47:27;;;;;;;1.58;1.48;;;18.20;93.90;;;;;;5025866;28;20116;-47
2023/06/14 02:49:53;;;;;;;2.78;1.90;;;18.20;94.20;;;;;;5030781;28;20520;-39
2023/06/14 02:52:20;;;;;;;3.40;1.85;;;18.20;94.20;;;;;;5027593;28;20049;-38
2023/06/14 02:54:47;;;;;;;1.90;1.70;;;18.10;93.90;;;;;;5033465;28;20033;-41
2023/06/14 02:57:12;;;;;;;6.03;1.90;;;18.00;94.10;;;;;;5031356;28;20045;-38
2023/06/14 02:59:38;;;;;;;2.70;1.40;;;18.00;94.10;;;;;;5033193;28;20486;-39
2023/06/14 03:02:04;;;;;;;1.70;1.60;;;18.00;94.00;;;;;;5031369;28;20021;-39
2023/06/14 03:04:34;;;;;;;9.38;1.58;;;17.90;94.00;;;;;;5032993;28;20029;-39
2023/06/14 03:07:02;;;;;;;3.13;1.77;;;17.90;94.20;;;;;;5029159;28;20464;-39
2023/06/14 03:09:28;;;;;;;1.50;1.40;;;17.80;94.10;;;;;;5032984;28;20044;-39
2023/06/14 03:11:54;;;;;;;12.50;2.03;;;17.90;94.60;;;;;;5030369;28;20025;-39
2023/06/14 03:14:21;;;;;;;11.43;2.35;;;17.80;94.30;;;;;;5032925;28;20095;-37
2023/06/14 03:16:46;;;;;;;5.55;2.67;;;17.70;94.10;;;;;;5033273;28;20537;-42
2023/06/14 03:19:12;;;;;;;4.93;2.10;;;17.70;94.30;;;;;;5032826;28;20100;-59
2023/06/14 03:21:43;;;;;;;1.67;1.58;;;17.60;94.30;;;;;;5029344;28;20029;-38
2023/06/14 03:24:09;;;;;;;5.00;1.80;;;17.70;94.30;;;;;;5033138;28;20520;-39
2023/06/14 03:26:36;;;;;;;7.30;1.98;;;17.60;94.60;;;;;;5033188;28;20045;-39
2023/06/14 03:29:02;;;;;;;;;;;17.60;94.80;;;;;;5032050;28;20022;-37
2023/06/14 03:31:32;;;;;;;3.20;2.47;;;17.50;94.60;;;;;;5020070;28;19906;-38
2023/06/14 03:33:58;;;;;;;4.28;1.45;;;17.50;94.60;;;;;;5013360;28;20115;-40
2023/06/14 03:36:24;;;;;;;5.05;2.08;;;17.50;94.80;;;;;;5011244;28;20475;-41
2023/06/14 03:38:50;;;;;;;5.68;1.75;;;17.50;94.60;;;;;;5025816;28;20381;-39
2023/06/14 03:41:16;;;;;;;3.10;1.60;;;17.50;94.40;;;;;;5032727;28;20028;-39
2023/06/14 03:43:41;;;;;;;2.45;1.92;;;17.40;94.80;;;;;;5032635;28;20470;-39
2023/06/14 03:46:07;;;;;;;5.20;1.55;;;17.40;94.80;;;;;;5030518;28;20373;-39
2023/06/14 03:48:33;;;;;;;3.30;1.80;;;17.40;94.80;;;;;;5032547;28;20029;-39
2023/06/14 03:50:58;;;;;;;6.20;1.83;;;17.40;94.80;;;;;;5028147;28;20033;-39
2023/06/14 03:53:24;;;;;;;3.35;1.55;;;17.40;94.80;;;;;;5032557;28;20033;-40
2023/06/14 03:55:52;;;;;;;6.47;1.75;;;17.30;94.90;;;;;;5030814;28;20402;-40
2023/06/14 03:58:18;;;;;;;4.53;1.67;;;17.30;95.00;;;;;;5032238;28;20077;-40
2023/06/14 04:00:46;;;;;;;5.38;2.30;;;17.30;95.10;;;;;;5032674;28;20024;-40
2023/06/14 04:03:13;;;;;;;5.97;2.13;;;17.20;95.10;;;;;;5032692;28;20101;-41
2023/06/14 04:05:42;;;;;;;2.08;1.35;;;17.20;95.00;;;;;;5029185;28;20037;-40
2023/06/14 04:08:09;;;;;;;5.82;1.85;;;17.10;95.20;;;;;;5012686;28;20101;-39
2023/06/14 04:10:35;;;;;;;4.18;1.67;;;17.10;95.60;;;;;;5012668;28;20056;-40
2023/06/14 04:13:00;;;;;;;6.05;2.00;;;17.10;95.50;;;;;;5012657;28;20018;-40
2023/06/14 04:15:28;;;;;;;2.90;2.10;;;17.10;95.90;;;;;;5024338;28;20029;-40
2023/06/14 04:17:57;;;;;;;3.20;1.30;;;17.00;95.60;;;;;;5032545;28;20036;-43
2023/06/14 04:20:26;;;;;;;4.00;1.80;;;16.90;95.70;;;;;;5032296;28;20022;-40
2023/06/14 04:22:57;;;;;;;4.15;2.15;;;17.00;95.80;;;;;;5028880;28;20021;-40
2023/06/14 04:25:23;;;;;;;3.50;2.35;;;17.00;96.00;;;;;;5036021;28;20706;-40
2023/06/14 04:27:49;;;;;;;2.25;1.58;;;17.00;95.80;;;;;;5036153;28;20351;-40
2023/06/14 04:30:15;;;;;;;5.18;1.98;;;17.00;95.90;;;;;;5032578;28;20126;-40
2023/06/14 04:32:42;;;;;;;6.63;1.60;;;17.00;95.90;;;;;;5035927;28;20057;-45
2023/06/14 04:35:08;;;;;;;9.57;1.83;;;17.00;96.10;;;;;;5032196;28;20059;-39
2023/06/14 04:37:34;;;;;;;5.80;1.95;;;16.90;96.00;;;;;;5025704;28;20061;-38
2023/06/14 04:40:00;;;;;;;11.23;1.73;;;16.90;96.10;;;;;;5027901;28;20099;-41
2023/06/14 04:42:30;;;;;;;2.35;1.63;;;16.90;96.30;;;;;;5029881;28;20107;-39
2023/06/14 04:44:57;;;;;;;4.50;1.70;;;16.90;96.30;;;;;;5029886;28;20032;-37
2023/06/14 04:47:24;;;;;;;7.82;1.92;;;16.90;96.30;;;;;;5032752;28;20040;-40
2023/06/14 04:49:52;;;;;;;;;;;16.90;96.40;;;;;;5031445;28;20032;-38
2023/06/14 04:52:20;;;;;;;6.03;2.20;;;16.90;96.60;;;;;;5029955;28;19917;-38
2023/06/14 04:54:46;;;;;;;2.30;1.98;;;17.10;96.50;;;;;;5033418;28;20080;-39
2023/06/14 04:57:14;;;;;;;21.20;3.30;;;17.00;96.50;;;;;;5029402;28;20445;-38
2023/06/14 04:59:40;;;;;;;6.82;2.13;;;17.10;96.70;;;;;;5035350;28;20024;-38
2023/06/14 05:02:06;;;;;;;3.40;1.80;;;17.20;96.70;;;;;;5034024;28;20026;-39
2023/06/14 05:04:32;;;;;;;16.08;2.53;;;17.20;96.50;;;;;;5029601;28;20014;-37
2023/06/14 05:06:58;;;;;;;5.35;2.72;;;17.30;96.30;;;;;;5028007;28;20098;-55
2023/06/14 05:09:24;;;;;;;8.40;1.75;;;17.30;96.40;;;;;;5035394;28;20033;-38
2023/06/14 05:11:50;;;;;;;2.75;2.00;;;17.30;96.20;;;;;;5032788;28;20100;-41
2023/06/14 05:14:16;;;;;;;2.53;1.83;;;17.30;96.20;;;;;;5035178;28;20025;-42
2023/06/14 05:16:42;;;;;;;2.17;1.77;;;17.30;96.10;;;;;;5032082;28;20030;-38
2023/06/14 05:19:10;;;;;;;17.98;2.10;;;17.30;96.30;;;;;;5034867;28;20070;-39
2023/06/14 05:21:37;;;;;;;4.38;1.67;;;17.40;96.50;;;;;;5014341;28;20144;-57
2023/06/14 05:24:03;;;;;;;5.75;2.00;;;17.50;96.40;;;;;;5015316;28;20493;-39
2023/06/14 05:26:29;;;;;;;4.82;1.75;;;17.50;96.30;;;;;;5029726;28;20041;-39
2023/06/14 05:28:58;;;;;;;2.05;1.85;;;17.60;96.30;;;;;;5034797;28;20474;-39
2023/06/14 05:31:25;;;;;;;7.85;2.08;;;17.70;96.10;;;;;;5032154;28;20533;-39
2023/06/14 05:33:51;;;;;;;15.05;2.47;;;17.80;96.00;;;;;;5034716;28;20022;-38
2023/06/14 05:36:17;;;;;;;2.78;1.70;;;17.80;95.90;;;;;;5029981;28;20040;-39
2023/06/14 05:38:42;;;;;;;2.45;2.03;;;17.90;96.00;;;;;;5031952;28;20495;-39
2023/06/14 05:41:08;;;;;;;4.72;1.60;;;17.90;95.80;;;;;;5034565;28;20025;-37
2023/06/14 05:43:34;;;;;;;2.42;1.90;;;18.00;95.90;;;;;;5034826;28;20024;-39
2023/06/14 05:45:59;;;;;;;10.90;2.13;;;18.10;95.50;;;;;;5032849;28;20083;-39
2023/06/14 05:48:25;;;;;;;4.40;2.15;;;18.30;95.50;;;;;;5034396;28;20497;-39
2023/06/14 05:50:51;;;;;;;1.77;1.67;;;18.40;95.50;;;;;;5030653;28;20040;-43
2023/06/14 05:53:17;;;;;;;5.18;1.90;;;18.40;95.20;;;;;;5034346;28;20101;-39
2023/06/14 05:55:42;;;;;;;1.70;1.60;;;18.50;95.20;;;;;;5030218;28;20541;-39
2023/06/14 05:58:08;;;;;;;3.03;1.80;;;18.60;95.20;;;;;;5034101;28;20401;-40
2023/06/14 06:00:34;;;;;;;5.20;1.73;;;18.80;95.30;;;;;;5034167;28;20047;-39
2023/06/14 06:03:00;;;;;;;6.82;2.17;;;18.90;94.60;;;;;;5034436;28;20030;-39
2023/06/14 06:05:26;;;;;;;4.40;1.97;;;19.10;94.70;;;;;;5031873;28;20097;-41
2023/06/14 06:07:52;;;;;;;3.97;1.98;;;19.20;94.80;;;;;;5034021;28;20053;-39
2023/06/14 06:10:18;;;;;;;17.67;2.80;;;19.30;94.30;;;;;;5034224;28;20489;-39
2023/06/14 06:12:43;;;;;;;5.32;1.83;;;19.90;94.10;;;;;;5032619;28;20017;-39
2023/06/14 06:15:12;;;;;;;3.47;1.98;;;21.00;92.90;;;;;;5031189;28;20032;-46
2023/06/14 06:17:39;;;;;;;7.97;1.77;;;21.50;92.00;;;;;;5026224;28;20041;-46
2023/06/14 06:20:08;;;;;;;1.80;1.70;;;21.40;92.10;;;;;;5031128;28;20048;-40
2023/06/14 06:22:34;;;;;;;3.28;1.63;;;21.50;92.00;;;;;;5029772;28;20030;-39
2023/06/14 06:25:00;;;;;;;3.10;1.40;;;21.70;91.50;;;;;;5033706;28;20022;-39
2023/06/14 06:27:26;;;;;;;2.55;2.20;;;22.00;90.60;;;;;;5033753;28;20026;-39
2023/06/14 06:29:51;;;;;;;7.95;1.90;;;22.40;90.20;;;;;;5033635;28;20018;-40
2023/06/14 06:32:17;;;;;;;9.27;1.65;;;23.00;90.00;;;;;;5030986;28;20147;-45
2023/06/14 06:34:43;;;;;;;5.50;1.63;;;23.40;89.60;;;;;;5028964;28;20026;-35
2023/06/14 06:37:09;;;;;;;5.95;1.95;;;23.30;89.70;;;;;;5026062;28;20030;-39
2023/06/14 06:39:35;;;;;;;4.07;1.73;;;23.30;89.20;;;;;;5013612;28;20025;-38
2023/06/14 06:42:00;;;;;;;3.17;1.70;;;23.30;88.80;;;;;;5017824;28;20068;-39
2023/06/14 06:44:26;;;;;;;3.78;1.67;;;23.00;88.70;;;;;;5032304;28;20041;-39
2023/06/14 06:46:52;;;;;;;1.98;1.88;;;23.00;88.50;;;;;;5019485;28;20068;-39
2023/06/14 06:49:17;;;;;;;3.50;1.52;;;23.50;88.20;;;;;;5029885;28;20025;-40
2023/06/14 06:51:44;;;;;;;4.88;2.55;;;23.50;88.80;;;;;;5028851;28;20108;-38
2023/06/14 06:54:10;;;;;;;3.40;1.90;;;23.50;89.00;;;;;;5027299;28;20432;-39
2023/06/14 06:56:36;;;;;;;6.22;1.67;;;23.80;87.30;;;;;;5029379;28;20561;-37
2023/06/14 06:59:01;;;;;;;2.25;1.80;;;23.80;88.10;;;;;;5033044;28;20045;-38
2023/06/14 07:01:28;;;;;;;6.15;1.85;;;23.60;88.00;;;;;;5033351;28;20017;-39
2023/06/14 07:03:55;;;;;;;4.40;1.95;;;23.60;88.40;;;;;;5030082;28;20026;-40
2023/06/14 07:06:21;;;;;;;3.15;1.70;;;23.80;88.10;;;;;;5028557;28;20477;-40
2023/06/14 07:08:48;;;;;;;5.72;1.65;;;24.60;86.70;;;;;;5033076;28;20150;-39
2023/06/14 07:11:14;;;;;;;2.72;1.95;;;25.50;85.50;;;;;;5033277;28;20555;-57
2023/06/14 07:13:40;;;;;;;4.15;1.80;;;27.00;84.30;;;;;;5030773;28;20469;-40
2023/06/14 07:16:06;;;;;;;3.83;2.10;;;28.40;81.70;;;;;;5032852;28;20022;-31
2023/06/14 07:18:31;;;;;;;4.00;2.00;;;29.20;81.10;;;;;;5032736;28;20040;-30
2023/06/14 07:20:57;;;;;;;5.38;2.00;;;29.50;78.90;;;;;;5030034;28;20026;-34
2023/06/14 07:23:23;;;;;;;7.45;1.92;;;29.30;79.40;;;;;;5032699;28;20482;-31
2023/06/14 07:25:49;;;;;;;3.55;1.85;;;28.60;80.10;;;;;;5032763;28;20053;-34
2023/06/14 07:28:16;;;;;;;3.15;2.05;;;28.70;80.40;;;;;;5032762;28;20048;-31
2023/06/14 07:30:42;;;;;;;2.42;1.45;;;28.70;80.30;;;;;;5029045;28;20089;-31
2023/06/14 07:33:08;;;;;;;5.35;2.55;;;29.00;80.20;;;;;;5032723;28;20064;-39
2023/06/14 07:35:34;;;;;;;2.03;1.83;;;28.90;79.70;;;;;;5032809;28;20021;-40
2023/06/14 07:38:00;;;;;;;4.15;2.35;;;29.00;79.40;;;;;;5024548;28;20393;-38
2023/06/14 07:40:25;;;;;;;2.33;1.95;;;28.80;79.70;;;;;;5032658;28;20022;-39
2023/06/14 07:42:51;;;;;;;2.65;1.90;;;28.70;79.80;;;;;;5032704;28;20072;-40
2023/06/14 07:45:17;;;;;;;2.05;1.85;;;28.40;80.20;;;;;;5031429;28;20028;-41
2023/06/14 07:47:42;;;;;;;3.92;2.25;;;28.30;80.20;;;;;;5029994;28;20064;-40
2023/06/14 07:50:08;;;;;;;2.95;2.03;;;28.00;80.40;;;;;;5032739;28;20025;-39
2023/06/14 07:52:34;;;;;;;5.30;1.70;;;27.20;80.10;;;;;;5028987;28;20033;-40
2023/06/14 07:55:00;;;;;;;4.18;2.00;;;26.60;81.20;;;;;;5032479;28;20028;-48
2023/06/14 07:57:25;;;;;;;1.88;1.60;;;26.20;81.40;;;;;;5028163;28;20449;-38
2023/06/14 07:59:51;;;;;;;8.10;1.75;;;26.40;80.70;;;;;;5036385;28;20029;-51
2023/06/14 08:02:17;;;;;;;4.03;2.13;;;26.80;80.00;;;;;;5036525;28;20032;-46
2023/06/14 08:04:43;;;;;;;2.05;1.42;;;26.80;79.90;;;;;;5036441;28;20032;-43
2023/06/14 08:07:08;;;;;;;6.65;2.08;;;26.90;79.50;;;;;;5024544;28;20021;-40
2023/06/14 08:09:37;;;;;;;1.42;1.33;;;27.30;79.40;;;;;;5029304;28;20486;-34
2023/06/14 08:12:07;;;;;;;2.25;1.52;;;27.60;79.50;;;;;;5036191;28;20084;-32
2023/06/14 08:14:33;;;;;;;8.02;1.50;;;27.90;79.30;;;;;;5025578;28;20124;-31
2023/06/14 08:16:59;;;;;;;1.70;1.60;;;28.10;78.10;;;;;;5028150;28;20025;-32
2023/06/14 08:19:24;;;;;;;7.13;1.42;;;28.30;78.60;;;;;;5036057;28;20022;-33
2023/06/14 08:21:50;;;;;;;4.88;1.75;;;28.30;78.20;;;;;;5033613;28;20018;-31
2023/06/14 08:24:16;;;;;;;2.75;1.35;;;28.40;76.80;;;;;;5036042;28;20386;-36
2023/06/14 08:26:42;;;;;;;1.85;1.23;;;28.50;77.20;;;;;;5033812;28;20029;-32
2023/06/14 08:29:08;;;;;;;3.22;1.83;;;27.80;77.80;;;;;;5036183;28;20025;-32
2023/06/14 08:31:34;;;;;;;3.03;1.60;;;27.40;78.70;;;;;;5036182;28;20025;-30
2023/06/14 08:33:59;;;;;;;6.30;1.50;;;27.50;79.00;;;;;;5035846;28;20026;-34
2023/06/14 08:36:25;;;;;;;1.20;1.10;;;27.80;78.10;;;;;;5032552;28;20030;-41
2023/06/14 08:38:51;;;;;;;3.00;1.80;;;27.80;78.30;;;;;;5016878;28;20037;-35
2023/06/14 08:41:27;;;;;;;5.72;1.70;;;28.00;78.20;;;;;;5019567;28;20240;-35
2023/06/14 08:43:52;;;;;;;7.23;1.63;;;27.90;78.10;;;;;;5025470;28;20562;-38
2023/06/14 08:46:22;;;;;;;5.30;1.70;;;27.80;77.40;;;;;;5034238;28;20152;-34
2023/06/14 08:48:52;;;;;;;2.90;1.50;;;28.20;77.10;;;;;;5035717;28;20490;-34
2023/06/14 08:51:22;;;;;;;2.05;1.58;;;28.30;76.60;;;;;;5024689;28;20033;-37
2023/06/14 08:53:58;;;;;;;6.43;1.42;;;28.40;76.80;;;;;;5049375;28;20029;-31
2023/06/14 08:56:27;;;;;;;6.05;1.33;;;28.90;75.20;;;;;;5032224;28;20064;-34
2023/06/14 08:58:54;;;;;;;6.35;1.30;;;29.00;75.80;;;;;;5029402;28;20049;-36
2023/06/14 09:01:21;;;;;;;4.63;1.50;;;29.10;75.20;;;;;;5034638;28;20123;-31
2023/06/14 09:03:48;;;;;;;2.90;1.05;;;29.00;75.30;;;;;;5032420;28;20026;-37
2023/06/14 09:06:15;;;;;;;3.70;1.40;;;28.90;74.20;;;;;;5033095;28;20025;-33
2023/06/14 09:08:46;;;;;;;5.75;1.20;;;29.10;73.70;;;;;;5029958;28;20559;-37
2023/06/14 09:11:13;;;;;;;1.60;1.40;;;29.30;74.60;;;;;;5034373;28;20381;-38
2023/06/14 09:13:39;;;;;;;3.20;1.25;;;29.50;74.40;;;;;;5035340;28;20025;-34
2023/06/14 09:16:06;;;;;;;1.30;1.20;;;29.70;74.10;;;;;;5033071;28;20045;-31
2023/06/14 09:18:47;;;;;;;3.65;1.05;;;29.90;72.60;;;;;;5034815;28;20555;-32
2023/06/14 09:21:15;;;;;;;1.80;1.25;;;30.10;72.80;;;;;;5032183;28;20022;-36
2023/06/14 09:23:45;;;;;;;5.30;1.92;;;30.10;73.40;;;;;;5030522;28;20067;-34
2023/06/14 09:26:16;;;;;;;2.40;1.05;;;30.10;72.50;;;;;;5032230;28;20030;-31
2023/06/14 09:28:42;;;;;;;5.93;1.35;;;29.70;73.10;;;;;;5034871;28;20061;-36
2023/06/14 09:31:09;;;;;;;3.40;1.08;;;29.10;73.00;;;;;;5035064;28;20045;-33
2023/06/14 09:33:35;;;;;;;;;;;28.40;73.10;;;;;;5035483;28;20470;-34
2023/06/14 09:36:01;;;;;;;1.10;0.80;;;28.00;74.30;;;;;;5030834;28;19915;-32
2023/06/14 09:38:26;;;;;;;2.65;1.60;;;27.70;73.80;;;;;;5026175;28;20030;-40
2023/06/14 09:40:52;;;;;;;1.58;1.00;;;27.10;74.40;;;;;;5034511;28;20021;-36
2023/06/14 09:43:21;;;;;;;5.43;1.10;;;26.80;75.20;;;;;;5033156;28;20397;-32
2023/06/14 09:45:48;;;;;;;3.90;1.17;;;26.60;75.00;;;;;;5031210;28;20014;-31
2023/06/14 09:48:17;;;;;;;2.30;1.35;;;26.50;75.90;;;;;;5034405;28;20056;-34
2023/06/14 09:50:46;;;;;;;2.67;1.30;;;26.70;75.90;;;;;;5034625;28;20111;-32
2023/06/14 09:53:13;;;;;;;2.05;1.20;;;26.70;75.10;;;;;;5030064;28;20029;-34
2023/06/14 09:55:40;;;;;;;1.42;0.80;;;26.60;75.30;;;;;;5034347;28;20040;-31
2023/06/14 09:58:07;;;;;;;1.17;1.08;;;26.60;74.40;;;;;;5032182;28;20061;-34
2023/06/14 10:00:34;;;;;;;1.00;0.98;;;26.70;75.00;;;;;;5034135;28;20021;-34
2023/06/14 10:03:28;;;;;;;1.23;1.13;;;26.60;74.30;;;;;;5030647;28;20028;-35
2023/06/14 10:05:55;;;;;;;1.63;1.08;;;26.90;72.90;;;;;;5011739;28;20494;-33
2023/06/14 10:08:28;;;;;;;0.85;0.80;;;27.00;74.00;;;;;;5014477;28;20033;-32
2023/06/14 10:10:56;;;;;;;18.80;1.58;;;27.20;74.50;;;;;;5014003;28;20021;-31
2023/06/14 10:13:22;;;;;;;1.58;1.10;;;27.90;72.80;;;;;;5014098;28;20105;-34
2023/06/14 10:15:48;;;;;;;3.00;1.25;;;28.30;73.30;;;;;;5013725;28;20482;-35
2023/06/14 10:18:29;;;;;;;1.20;1.00;;;28.70;72.60;;;;;;5013920;28;20045;-32
2023/06/14 10:21:28;;;;;;;1.38;1.00;;;29.00;72.00;;;;;;5013578;28;20022;-35
2023/06/14 10:23:56;;;;;;;1.00;0.90;;;28.50;73.30;;;;;;5013708;28;20021;-32
2023/06/14 10:26:23;;;;;;;1.35;1.10;;;28.10;71.20;;;;;;5013858;28;20026;-34
2023/06/14 10:29:01;;;;;;;1.23;0.88;;;28.10;70.90;;;;;;5013800;28;20534;-38
2023/06/14 10:31:49;;;;;;;0.85;0.82;;;27.90;70.50;;;;;;5014124;28;20025;-36
2023/06/14 10:34:25;;;;;;;2.97;1.10;;;28.10;70.90;;;;;;5013287;28;20018;-34
2023/06/14 10:37:04;;;;;;;1.05;0.90;;;28.10;71.00;;;;;;5013836;28;20375;-31
2023/06/14 10:39:30;;;;;;;0.88;0.88;;;28.20;72.00;;;;;;5013514;28;20089;-33
2023/06/14 10:41:57;;;;;;;5.28;1.27;;;28.20;71.70;;;;;;5013661;28;20076;-32
2023/06/14 10:44:23;;;;;;;0.70;0.70;;;28.40;72.20;;;;;;5013636;28;20025;-33
2023/06/14 10:46:52;;;;;;;3.80;0.73;;;28.30;72.50;;;;;;5013607;28;20402;-35
2023/06/14 10:49:44;;;;;;;14.60;1.70;;;28.00;72.40;;;;;;5013054;28;20060;-38
2023/06/14 10:52:18;;;;;;;0.77;0.77;;;27.80;74.10;;;;;;5012562;28;20030;-43
2023/06/14 10:54:59;;;;;;;1.65;0.95;;;27.50;72.10;;;;;;5009561;28;20029;-37
2023/06/14 10:57:25;;;;;;;3.55;0.88;;;27.40;73.30;;;;;;5013021;28;20077;-32
2023/06/14 10:59:51;;;;;;;0.98;0.85;;;27.60;72.50;;;;;;5013645;28;20484;-39
2023/06/14 11:02:19;;;;;;;0.80;0.80;;;27.50;72.40;;;;;;5013345;28;20028;-34
2023/06/14 11:04:52;;;;;;;1.17;0.93;;;27.50;73.20;;;;;;5012681;28;20092;-31
2023/06/14 11:07:46;;;;;;;1.00;0.70;;;27.50;73.10;;;;;;5025252;28;20022;-32
2023/06/14 11:11:02;;;;;;;1.90;0.98;;;27.30;72.00;;;;;;5032880;28;20017;-34
2023/06/14 11:13:28;;;;;;;;;;;27.40;72.60;;;;;;5008831;28;20057;-40
2023/06/14 11:15:56;;;;;;;2.27;1.00;;;27.50;73.50;;;;;;5028814;28;19961;-40
2023/06/14 11:18:24;;;;;;;7.40;2.28;;;27.50;73.10;;;;;;5033020;28;20385;-40
2023/06/14 11:20:50;;;;;;;1.52;1.23;;;27.40;73.60;;;;;;5032862;28;20025;-47
2023/06/14 11:23:16;;;;;;;5.10;1.20;;;27.30;74.10;;;;;;5027093;28;20121;-40
2023/06/14 11:25:41;;;;;;;3.78;0.70;;;27.10;74.00;;;;;;5032921;28;20022;-40
2023/06/14 11:28:07;;;;;;;0.90;0.90;;;27.10;74.80;;;;;;5032863;28;20029;-40
2023/06/14 11:30:33;;;;;;;2.38;0.80;;;27.00;74.40;;;;;;5032876;28;20033;-41
2023/06/14 11:32:59;;;;;;;2.10;1.80;;;26.90;74.00;;;;;;5028806;28;20040;-44
2023/06/14 11:35:26;;;;;;;2.85;1.15;;;27.10;74.30;;;;;;5032907;28;20478;-40
2023/06/14 11:37:57;;;;;;;7.93;1.50;;;27.20;74.70;;;;;;5014739;28;20041;-40
2023/06/14 11:40:25;;;;;;;2.05;1.30;;;27.40;74.00;;;;;;5013551;28;20037;-40
2023/06/14 11:43:01;;;;;;;1.77;1.35;;;27.40;73.00;;;;;;5012092;28;20041;-41
2023/06/14 11:45:27;;;;;;;4.15;1.20;;;27.50;74.20;;;;;;5013687;28;20494;-39
2023/06/14 11:47:58;;;;;;;0.88;0.88;;;27.60;73.40;;;;;;5027713;28;20417;-43
2023/06/14 11:50:24;;;;;;;5.43;1.20;;;27.80;73.30;;;;;;5032685;28;20036;-40
2023/06/14 11:52:55;;;;;;;2.03;0.98;;;27.80;72.40;;;;;;5029227;28;20037;-41
2023/06/14 11:55:22;;;;;;;1.65;1.00;;;27.70;72.50;;;;;;5029659;28;20056;-39
2023/06/14 11:57:48;;;;;;;5.88;1.17;;;27.80;72.80;;;;;;5032355;28;20048;-43
2023/06/14 12:00:15;;;;;;;1.35;1.17;;;27.80;73.50;;;;;;5029676;28;20051;-39
2023/06/14 12:02:41;;;;;;;;;;;27.90;73.10;;;;;;5025022;28;20364;-40
2023/06/14 12:05:10;;;;;;;4.57;1.37;;;28.00;73.10;;;;;;5012709;28;19956;-40
2023/06/14 12:07:42;;;;;;;1.63;1.52;;;27.80;72.50;;;;;;5012565;28;20068;-40
2023/06/14 12:10:09;;;;;;;1.20;0.95;;;27.70;73.20;;;;;;5030392;28;20022;-40
2023/06/14 12:12:37;;;;;;;1.70;1.10;;;27.30;73.10;;;;;;5031147;28;20044;-40
2023/06/14 12:15:05;;;;;;;2.00;0.80;;;27.30;73.90;;;;;;5032404;28;20022;-40
2023/06/14 12:17:36;;;;;;;2.35;0.90;;;27.40;73.70;;;;;;5032509;28;20108;-62
2023/06/14 12:20:21;;;;;;;6.00;1.35;;;27.30;73.90;;;;;;5030206;28;20029;-43
2023/06/14 12:23:00;;;;;;;1.75;1.10;;;27.30;73.40;;;;;;5029964;28;20450;-39
2023/06/14 12:25:44;;;;;;;1.77;1.52;;;27.40;73.50;;;;;;5029523;28;20048;-43
2023/06/14 12:28:10;;;;;;;1.17;1.08;;;27.60;73.10;;;;;;5032321;28;20551;-42
2023/06/14 12:30:37;;;;;;;1.23;0.95;;;27.80;73.90;;;;;;5032305;28;20030;-41
2023/06/14 12:33:03;;;;;;;1.80;1.13;;;27.90;73.40;;;;;;5030125;28;20034;-46
2023/06/14 12:35:29;;;;;;;2.38;1.30;;;27.80;73.80;;;;;;5030088;28;20037;-44
2023/06/14 12:37:55;;;;;;;2.78;1.52;;;27.60;73.10;;;;;;5016908;28;20113;-47
2023/06/14 12:40:20;;;;;;;1.40;1.00;;;27.50;74.30;;;;;;5012529;28;20386;-39
2023/06/14 12:42:49;;;;;;;11.13;2.47;;;27.40;73.40;;;;;;5011838;28;20022;-38
2023/06/14 12:45:15;;;;;;;3.75;1.60;;;27.70;73.30;;;;;;5033271;28;20026;-41
2023/06/14 12:47:40;;;;;;;1.60;0.75;;;27.90;71.60;;;;;;5032849;28;20030;-39
2023/06/14 12:50:07;;;;;;;5.00;1.38;;;28.10;72.50;;;;;;5029026;28;20018;-35